sensor_id;sensor_type;location;lat;lon;timestamp;temperature;humidity
43541;DHT22;29549;40.386;-3.710;2023-04-25T00:07:32;20.20;48.90
43541;DHT22;29549;40.386;-3.710;2023-04-25T00:17:33;20.10;49.10
43541;DHT22;29549;40.386;-3.710;2023-04-25T00:27:35;20.00;49.40
43541;DHT22;29549;40.386;-3.710;2023-04-25T00:37:37;20.00;49.60
43541;DHT22;29549;40.386;-3.710;2023-04-25T00:47:40;19.90;49.90
43541;DHT22;29549;40.386;-3.710;2023-04-25T00:57:42;19.90;49.90
43541;DHT22;29549;40.386;-3.710;2023-04-25T01:07:44;19.90;49.80
43541;DHT22;29549;40.386;-3.710;2023-04-25T01:17:46;19.80;49.70
43541;DHT22;29549;40.386;-3.710;2023-04-25T01:27:47;19.90;49.50
43541;DHT22;29549;40.386;-3.710;2023-04-25T01:37:49;19.80;49.60
43541;DHT22;29549;40.386;-3.710;2023-04-25T01:47:50;19.80;49.40
43541;DHT22;29549;40.386;-3.710;2023-04-25T01:57:52;19.80;49.60
43541;DHT22;29549;40.386;-3.710;2023-04-25T02:07:53;19.60;50.20
43541;DHT22;29549;40.386;-3.710;2023-04-25T02:17:54;19.40;50.70
43541;DHT22;29549;40.386;-3.710;2023-04-25T02:27:56;19.40;51.10
43541;DHT22;29549;40.386;-3.710;2023-04-25T02:37:57;19.40;51.00
43541;DHT22;29549;40.386;-3.710;2023-04-25T02:47:59;19.30;51.10
43541;DHT22;29549;40.386;-3.710;2023-04-25T02:58:00;19.20;51.60
43541;DHT22;29549;40.386;-3.710;2023-04-25T03:08:01;19.20;51.90
43541;DHT22;29549;40.386;-3.710;2023-04-25T03:18:03;19.20;51.80
43541;DHT22;29549;40.386;-3.710;2023-04-25T03:28:05;19.20;51.80
43541;DHT22;29549;40.386;-3.710;2023-04-25T03:38:06;19.00;52.10
43541;DHT22;29549;40.386;-3.710;2023-04-25T03:48:07;19.00;52.40
43541;DHT22;29549;40.386;-3.710;2023-04-25T03:58:08;18.80;53.10
43541;DHT22;29549;40.386;-3.710;2023-04-25T04:08:10;18.70;53.70
43541;DHT22;29549;40.386;-3.710;2023-04-25T04:18:11;18.60;54.20
43541;DHT22;29549;40.386;-3.710;2023-04-25T04:28:12;18.40;54.80
43541;DHT22;29549;40.386;-3.710;2023-04-25T04:38:14;18.20;55.40
43541;DHT22;29549;40.386;-3.710;2023-04-25T04:48:16;18.10;55.70
43541;DHT22;29549;40.386;-3.710;2023-04-25T04:58:17;18.00;56.00
43541;DHT22;29549;40.386;-3.710;2023-04-25T05:08:19;18.00;56.40
43541;DHT22;29549;40.386;-3.710;2023-04-25T05:18:20;17.80;56.30
43541;DHT22;29549;40.386;-3.710;2023-04-25T05:28:21;17.90;56.50
43541;DHT22;29549;40.386;-3.710;2023-04-25T05:38:23;17.70;56.50
43541;DHT22;29549;40.386;-3.710;2023-04-25T05:48:24;17.70;56.20
43541;DHT22;29549;40.386;-3.710;2023-04-25T05:58:25;17.70;56.00
43541;DHT22;29549;40.386;-3.710;2023-04-25T06:08:26;17.50;57.50
43541;DHT22;29549;40.386;-3.710;2023-04-25T06:18:28;17.40;58.20
43541;DHT22;29549;40.386;-3.710;2023-04-25T06:28:29;17.20;57.80
43541;DHT22;29549;40.386;-3.710;2023-04-25T06:38:30;17.00;58.20
43541;DHT22;29549;40.386;-3.710;2023-04-25T06:48:32;17.20;57.70
43541;DHT22;29549;40.386;-3.710;2023-04-25T06:58:33;17.30;57.50
43541;DHT22;29549;40.386;-3.710;2023-04-25T07:08:34;17.70;55.90
43541;DHT22;29549;40.386;-3.710;2023-04-25T07:18:35;18.00;54.20
43541;DHT22;29549;40.386;-3.710;2023-04-25T07:28:37;18.50;52.70
43541;DHT22;29549;40.386;-3.710;2023-04-25T07:38:39;19.10;52.20
43541;DHT22;29549;40.386;-3.710;2023-04-25T07:48:40;19.70;51.80
43541;DHT22;29549;40.386;-3.710;2023-04-25T07:58:41;20.20;50.10
43541;DHT22;29549;40.386;-3.710;2023-04-25T08:08:42;20.40;49.80
43541;DHT22;29549;40.386;-3.710;2023-04-25T08:18:44;20.90;49.10
43541;DHT22;29549;40.386;-3.710;2023-04-25T08:28:46;21.20;49.30
43541;DHT22;29549;40.386;-3.710;2023-04-25T08:38:47;21.40;48.60
43541;DHT22;29549;40.386;-3.710;2023-04-25T08:48:49;21.60;48.40
43541;DHT22;29549;40.386;-3.710;2023-04-25T08:58:51;21.70;47.80
43541;DHT22;29549;40.386;-3.710;2023-04-25T09:08:52;22.10;46.70
43541;DHT22;29549;40.386;-3.710;2023-04-25T09:18:54;22.20;45.90
43541;DHT22;29549;40.386;-3.710;2023-04-25T09:29:06;22.60;45.70
43541;DHT22;29549;40.386;-3.710;2023-04-25T09:39:12;22.90;44.60
43541;DHT22;29549;40.386;-3.710;2023-04-25T09:49:16;23.00;44.30
43541;DHT22;29549;40.386;-3.710;2023-04-25T09:59:22;23.30;47.20
43541;DHT22;29549;40.386;-3.710;2023-04-25T10:09:26;23.40;43.80
43541;DHT22;29549;40.386;-3.710;2023-04-25T10:19:33;23.70;40.30
43541;DHT22;29549;40.386;-3.710;2023-04-25T10:29:35;23.80;39.50
43541;DHT22;29549;40.386;-3.710;2023-04-25T10:39:39;24.00;39.70
43541;DHT22;29549;40.386;-3.710;2023-04-25T10:49:44;24.00;37.30
43541;DHT22;29549;40.386;-3.710;2023-04-25T10:59:46;24.10;38.10
43541;DHT22;29549;40.386;-3.710;2023-04-25T11:09:47;24.20;38.30
43541;DHT22;29549;40.386;-3.710;2023-04-25T11:19:48;24.40;36.80
43541;DHT22;29549;40.386;-3.710;2023-04-25T11:29:50;24.60;36.60
43541;DHT22;29549;40.386;-3.710;2023-04-25T11:39:51;25.00;35.50
43541;DHT22;29549;40.386;-3.710;2023-04-25T11:49:53;25.10;35.70
43541;DHT22;29549;40.386;-3.710;2023-04-25T11:59:54;25.10;34.60
43541;DHT22;29549;40.386;-3.710;2023-04-25T12:09:56;25.30;34.30
43541;DHT22;29549;40.386;-3.710;2023-04-25T12:19:57;25.30;32.90
43541;DHT22;29549;40.386;-3.710;2023-04-25T12:29:58;25.70;32.30
43541;DHT22;29549;40.386;-3.710;2023-04-25T12:40:00;26.00;32.40
43541;DHT22;29549;40.386;-3.710;2023-04-25T12:50:01;26.30;31.40
43541;DHT22;29549;40.386;-3.710;2023-04-25T13:00:02;26.50;30.90
43541;DHT22;29549;40.386;-3.710;2023-04-25T13:10:05;26.60;30.50
43541;DHT22;29549;40.386;-3.710;2023-04-25T13:20:08;26.70;30.10
43541;DHT22;29549;40.386;-3.710;2023-04-25T13:30:29;27.00;29.70
43541;DHT22;29549;40.386;-3.710;2023-04-25T13:40:30;27.30;29.30
43541;DHT22;29549;40.386;-3.710;2023-04-25T13:50:33;27.50;28.50
43541;DHT22;29549;40.386;-3.710;2023-04-25T14:00:36;27.60;28.20
43541;DHT22;29549;40.386;-3.710;2023-04-25T14:10:39;27.50;29.20
43541;DHT22;29549;40.386;-3.710;2023-04-25T14:20:40;27.50;29.10
43541;DHT22;29549;40.386;-3.710;2023-04-25T14:30:42;27.50;29.30
43541;DHT22;29549;40.386;-3.710;2023-04-25T14:40:43;27.60;28.90
43541;DHT22;29549;40.386;-3.710;2023-04-25T14:50:48;27.80;28.80
43541;DHT22;29549;40.386;-3.710;2023-04-25T15:00:50;27.70;28.70
43541;DHT22;29549;40.386;-3.710;2023-04-25T15:10:52;27.80;28.90
43541;DHT22;29549;40.386;-3.710;2023-04-25T15:20:53;28.00;28.50
43541;DHT22;29549;40.386;-3.710;2023-04-25T15:30:54;28.00;28.90
43541;DHT22;29549;40.386;-3.710;2023-04-25T15:40:56;27.80;28.50
43541;DHT22;29549;40.386;-3.710;2023-04-25T15:50:57;28.20;27.90
43541;DHT22;29549;40.386;-3.710;2023-04-25T16:00:59;28.10;27.60
43541;DHT22;29549;40.386;-3.710;2023-04-25T16:11:01;28.30;26.90
43541;DHT22;29549;40.386;-3.710;2023-04-25T16:21:03;28.20;26.50
43541;DHT22;29549;40.386;-3.710;2023-04-25T16:31:04;28.00;27.20
43541;DHT22;29549;40.386;-3.710;2023-04-25T16:41:07;27.70;27.60
43541;DHT22;29549;40.386;-3.710;2023-04-25T16:51:08;27.60;28.80
43541;DHT22;29549;40.386;-3.710;2023-04-25T17:01:09;27.60;29.80
43541;DHT22;29549;40.386;-3.710;2023-04-25T17:11:11;27.50;29.50
43541;DHT22;29549;40.386;-3.710;2023-04-25T17:21:12;27.50;29.70
43541;DHT22;29549;40.386;-3.710;2023-04-25T17:31:14;27.30;29.50
43541;DHT22;29549;40.386;-3.710;2023-04-25T17:41:16;27.10;30.40
43541;DHT22;29549;40.386;-3.710;2023-04-25T17:51:18;27.00;30.70
43541;DHT22;29549;40.386;-3.710;2023-04-25T18:01:20;26.90;30.70
43541;DHT22;29549;40.386;-3.710;2023-04-25T18:11:22;26.80;26.70
43541;DHT22;29549;40.386;-3.710;2023-04-25T18:21:24;26.60;25.00
43541;DHT22;29549;40.386;-3.710;2023-04-25T18:31:26;26.40;24.40
43541;DHT22;29549;40.386;-3.710;2023-04-25T18:41:30;26.20;24.80
43541;DHT22;29549;40.386;-3.710;2023-04-25T18:51:32;26.00;25.00
43541;DHT22;29549;40.386;-3.710;2023-04-25T19:01:33;25.70;25.00
43541;DHT22;29549;40.386;-3.710;2023-04-25T19:11:35;25.50;25.50
43541;DHT22;29549;40.386;-3.710;2023-04-25T19:21:36;25.30;26.20
43541;DHT22;29549;40.386;-3.710;2023-04-25T19:31:39;25.10;26.90
43541;DHT22;29549;40.386;-3.710;2023-04-25T19:41:41;24.90;27.50
43541;DHT22;29549;40.386;-3.710;2023-04-25T19:51:42;24.60;27.80
43541;DHT22;29549;40.386;-3.710;2023-04-25T20:01:43;24.40;28.30
43541;DHT22;29549;40.386;-3.710;2023-04-25T20:11:45;24.20;28.80
43541;DHT22;29549;40.386;-3.710;2023-04-25T20:21:47;24.00;29.30
43541;DHT22;29549;40.386;-3.710;2023-04-25T20:31:49;23.80;30.00
43541;DHT22;29549;40.386;-3.710;2023-04-25T20:41:51;23.70;30.30
43541;DHT22;29549;40.386;-3.710;2023-04-25T20:51:52;23.50;30.80
43541;DHT22;29549;40.386;-3.710;2023-04-25T21:01:54;23.40;31.10
43541;DHT22;29549;40.386;-3.710;2023-04-25T21:11:55;23.50;31.20
43541;DHT22;29549;40.386;-3.710;2023-04-25T21:21:57;23.40;31.60
43541;DHT22;29549;40.386;-3.710;2023-04-25T21:31:59;23.20;32.30
43541;DHT22;29549;40.386;-3.710;2023-04-25T21:42:00;22.90;33.10
43541;DHT22;29549;40.386;-3.710;2023-04-25T21:52:03;22.70;33.60
43541;DHT22;29549;40.386;-3.710;2023-04-25T22:02:04;22.50;34.20
43541;DHT22;29549;40.386;-3.710;2023-04-25T22:12:06;22.40;34.70
43541;DHT22;29549;40.386;-3.710;2023-04-25T22:22:08;22.20;35.00
43541;DHT22;29549;40.386;-3.710;2023-04-25T22:32:09;22.00;35.80
43541;DHT22;29549;40.386;-3.710;2023-04-25T22:42:11;21.90;36.30
43541;DHT22;29549;40.386;-3.710;2023-04-25T22:52:12;21.80;36.90
43541;DHT22;29549;40.386;-3.710;2023-04-25T23:02:14;21.80;37.10
43541;DHT22;29549;40.386;-3.710;2023-04-25T23:12:18;21.70;37.50
43541;DHT22;29549;40.386;-3.710;2023-04-25T23:22:19;21.70;37.70
43541;DHT22;29549;40.386;-3.710;2023-04-25T23:32:21;21.70;37.80
43541;DHT22;29549;40.386;-3.710;2023-04-25T23:42:22;21.80;38.10
43541;DHT22;29549;40.386;-3.710;2023-04-25T23:52:24;21.60;38.40
